sensor_id;sensor_type;location;lat;lon;timestamp;P1;durP1;ratioP1;P2;durP2;ratioP2
9924;SDS011;5001;51.674;7.868;2023-08-01T09:50:42;0.20;;;0.20;;
9924;SDS011;5001;51.674;7.868;2023-08-01T09:53:09;5.57;;;2.53;;
9924;SDS011;5001;51.674;7.868;2023-08-01T09:55:36;0.10;;;0.10;;
9924;SDS011;5001;51.674;7.868;2023-08-01T09:58:06;0.10;;;0.10;;
9924;SDS011;5001;51.674;7.868;2023-08-01T10:00:35;0.10;;;0.10;;
9924;SDS011;5001;51.674;7.868;2023-08-01T10:03:03;0.10;;;0.10;;
9924;SDS011;5001;51.674;7.868;2023-08-01T10:05:32;0.10;;;0.10;;
9924;SDS011;5001;51.674;7.868;2023-08-01T10:08:01;0.75;;;0.75;;
9924;SDS011;5001;51.674;7.868;2023-08-01T10:10:29;0.10;;;0.10;;
9924;SDS011;5001;51.674;7.868;2023-08-01T10:12:56;1.20;;;1.10;;
9924;SDS011;5001;51.674;7.868;2023-08-01T10:15:24;0.10;;;0.10;;
9924;SDS011;5001;51.674;7.868;2023-08-01T10:17:54;0.17;;;0.17;;
9924;SDS011;5001;51.674;7.868;2023-08-01T10:20:21;0.20;;;0.20;;
9924;SDS011;5001;51.674;7.868;2023-08-01T10:22:49;0.10;;;0.10;;
9924;SDS011;5001;51.674;7.868;2023-08-01T10:25:17;0.13;;;0.13;;
9924;SDS011;5001;51.674;7.868;2023-08-01T10:27:56;0.10;;;0.10;;
9924;SDS011;5001;51.674;7.868;2023-08-01T10:30:28;0.10;;;0.10;;
9924;SDS011;5001;51.674;7.868;2023-08-01T10:32:56;0.10;;;0.10;;
9924;SDS011;5001;51.674;7.868;2023-08-01T10:35:36;0.60;;;0.60;;
9924;SDS011;5001;51.674;7.868;2023-08-01T10:38:08;0.10;;;0.10;;
9924;SDS011;5001;51.674;7.868;2023-08-01T10:40:42;0.20;;;0.20;;
9924;SDS011;5001;51.674;7.868;2023-08-01T10:43:19;0.13;;;0.13;;
9924;SDS011;5001;51.674;7.868;2023-08-01T10:46:02;0.20;;;0.20;;
9924;SDS011;5001;51.674;7.868;2023-08-01T10:48:30;0.20;;;0.20;;
9924;SDS011;5001;51.674;7.868;2023-08-01T10:50:58;0.10;;;0.10;;
9924;SDS011;5001;51.674;7.868;2023-08-01T10:53:25;0.10;;;0.10;;
9924;SDS011;5001;51.674;7.868;2023-08-01T10:55:52;0.10;;;0.10;;
9924;SDS011;5001;51.674;7.868;2023-08-01T10:58:19;0.65;;;0.65;;
9924;SDS011;5001;51.674;7.868;2023-08-01T11:00:46;0.20;;;0.20;;
9924;SDS011;5001;51.674;7.868;2023-08-01T11:03:33;0.13;;;0.13;;
9924;SDS011;5001;51.674;7.868;2023-08-01T11:06:01;0.10;;;0.10;;
9924;SDS011;5001;51.674;7.868;2023-08-01T11:08:35;0.10;;;0.10;;
9924;SDS011;5001;51.674;7.868;2023-08-01T11:11:06;0.10;;;0.10;;
9924;SDS011;5001;51.674;7.868;2023-08-01T11:13:40;0.10;;;0.10;;
9924;SDS011;5001;51.674;7.868;2023-08-01T11:16:07;0.10;;;0.10;;
9924;SDS011;5001;51.674;7.868;2023-08-01T11:18:43;4.32;;;2.65;;
9924;SDS011;5001;51.674;7.868;2023-08-01T11:21:11;5.05;;;2.58;;
9924;SDS011;5001;51.674;7.868;2023-08-01T11:23:38;4.07;;;2.78;;
9924;SDS011;5001;51.674;7.868;2023-08-01T11:26:08;6.55;;;2.72;;
9924;SDS011;5001;51.674;7.868;2023-08-01T11:28:35;4.35;;;2.40;;
9924;SDS011;5001;51.674;7.868;2023-08-01T11:31:20;3.95;;;2.50;;
9924;SDS011;5001;51.674;7.868;2023-08-01T11:33:57;8.35;;;2.45;;
9924;SDS011;5001;51.674;7.868;2023-08-01T11:36:28;4.90;;;2.63;;
9924;SDS011;5001;51.674;7.868;2023-08-01T11:38:56;2.90;;;2.35;;
9924;SDS011;5001;51.674;7.868;2023-08-01T11:41:25;5.70;;;2.03;;
9924;SDS011;5001;51.674;7.868;2023-08-01T11:43:53;4.90;;;1.90;;
9924;SDS011;5001;51.674;7.868;2023-08-01T11:46:29;3.08;;;1.70;;
9924;SDS011;5001;51.674;7.868;2023-08-01T11:48:58;2.90;;;1.27;;
9924;SDS011;5001;51.674;7.868;2023-08-01T11:51:27;2.17;;;1.30;;
9924;SDS011;5001;51.674;7.868;2023-08-01T11:54:02;2.00;;;1.30;;
9924;SDS011;5001;51.674;7.868;2023-08-01T11:56:30;3.42;;;1.45;;
9924;SDS011;5001;51.674;7.868;2023-08-01T11:58:58;3.38;;;1.88;;
9924;SDS011;5001;51.674;7.868;2023-08-01T12:01:25;5.40;;;1.83;;
9924;SDS011;5001;51.674;7.868;2023-08-01T12:03:53;2.65;;;1.98;;
9924;SDS011;5001;51.674;7.868;2023-08-01T12:06:22;2.20;;;1.70;;
9924;SDS011;5001;51.674;7.868;2023-08-01T12:08:53;4.03;;;1.90;;
9924;SDS011;5001;51.674;7.868;2023-08-01T12:11:24;4.28;;;1.92;;
9924;SDS011;5001;51.674;7.868;2023-08-01T12:16:40;6.50;;;3.65;;
9924;SDS011;5001;51.674;7.868;2023-08-01T12:19:11;9.13;;;3.00;;
9924;SDS011;5001;51.674;7.868;2023-08-01T12:21:47;3.40;;;2.70;;
9924;SDS011;5001;51.674;7.868;2023-08-01T12:24:14;4.25;;;2.80;;
9924;SDS011;5001;51.674;7.868;2023-08-01T12:26:42;4.35;;;3.38;;
9924;SDS011;5001;51.674;7.868;2023-08-01T12:29:09;4.30;;;2.80;;
9924;SDS011;5001;51.674;7.868;2023-08-01T12:31:37;2.88;;;2.55;;
9924;SDS011;5001;51.674;7.868;2023-08-01T12:34:04;3.78;;;2.72;;
9924;SDS011;5001;51.674;7.868;2023-08-01T12:36:31;7.05;;;3.90;;
9924;SDS011;5001;51.674;7.868;2023-08-01T12:38:58;4.63;;;2.63;;
9924;SDS011;5001;51.674;7.868;2023-08-01T12:41:25;3.58;;;2.42;;
9924;SDS011;5001;51.674;7.868;2023-08-01T12:43:52;3.30;;;2.40;;
9924;SDS011;5001;51.674;7.868;2023-08-01T12:46:19;3.97;;;2.53;;
9924;SDS011;5001;51.674;7.868;2023-08-01T12:48:46;4.50;;;2.70;;
9924;SDS011;5001;51.674;7.868;2023-08-01T12:51:13;5.95;;;3.10;;
9924;SDS011;5001;51.674;7.868;2023-08-01T12:53:41;5.15;;;2.30;;
9924;SDS011;5001;51.674;7.868;2023-08-01T12:56:11;3.55;;;2.60;;
9924;SDS011;5001;51.674;7.868;2023-08-01T12:58:38;3.70;;;2.30;;
9924;SDS011;5001;51.674;7.868;2023-08-01T13:01:05;2.70;;;2.33;;
9924;SDS011;5001;51.674;7.868;2023-08-01T13:03:33;6.53;;;3.33;;
9924;SDS011;5001;51.674;7.868;2023-08-01T13:06:00;5.05;;;2.28;;
9924;SDS011;5001;51.674;7.868;2023-08-01T13:08:27;3.13;;;2.25;;
9924;SDS011;5001;51.674;7.868;2023-08-01T13:10:56;3.88;;;2.70;;
9924;SDS011;5001;51.674;7.868;2023-08-01T13:13:26;5.07;;;2.03;;
9924;SDS011;5001;51.674;7.868;2023-08-01T13:15:53;4.18;;;2.10;;
9924;SDS011;5001;51.674;7.868;2023-08-01T13:18:22;2.85;;;1.98;;
9924;SDS011;5001;51.674;7.868;2023-08-01T13:20:49;2.83;;;2.03;;
9924;SDS011;5001;51.674;7.868;2023-08-01T13:23:16;4.88;;;2.22;;
9924;SDS011;5001;51.674;7.868;2023-08-01T13:25:43;3.28;;;1.90;;
9924;SDS011;5001;51.674;7.868;2023-08-01T13:28:12;4.50;;;2.33;;
9924;SDS011;5001;51.674;7.868;2023-08-01T13:30:39;4.38;;;2.03;;
9924;SDS011;5001;51.674;7.868;2023-08-01T13:33:06;3.65;;;1.70;;
9924;SDS011;5001;51.674;7.868;2023-08-01T13:35:33;2.83;;;2.08;;
9924;SDS011;5001;51.674;7.868;2023-08-01T13:38:00;5.80;;;2.15;;
9924;SDS011;5001;51.674;7.868;2023-08-01T13:40:28;6.05;;;1.95;;
9924;SDS011;5001;51.674;7.868;2023-08-01T13:42:54;3.13;;;1.90;;
9924;SDS011;5001;51.674;7.868;2023-08-01T13:45:21;5.00;;;1.95;;
9924;SDS011;5001;51.674;7.868;2023-08-01T13:47:48;3.72;;;2.08;;
9924;SDS011;5001;51.674;7.868;2023-08-01T13:50:15;4.25;;;1.95;;
9924;SDS011;5001;51.674;7.868;2023-08-01T13:52:42;3.15;;;2.03;;
9924;SDS011;5001;51.674;7.868;2023-08-01T13:55:09;3.95;;;2.00;;
9924;SDS011;5001;51.674;7.868;2023-08-01T13:57:37;5.40;;;2.20;;
9924;SDS011;5001;51.674;7.868;2023-08-01T14:00:04;4.35;;;2.13;;
9924;SDS011;5001;51.674;7.868;2023-08-01T14:02:41;4.28;;;2.72;;
9924;SDS011;5001;51.674;7.868;2023-08-01T14:05:08;3.90;;;2.00;;
9924;SDS011;5001;51.674;7.868;2023-08-01T14:07:36;2.17;;;1.95;;
9924;SDS011;5001;51.674;7.868;2023-08-01T14:10:07;6.43;;;2.10;;
9924;SDS011;5001;51.674;7.868;2023-08-01T14:12:36;4.93;;;2.10;;
9924;SDS011;5001;51.674;7.868;2023-08-01T14:15:03;3.90;;;2.05;;
9924;SDS011;5001;51.674;7.868;2023-08-01T14:17:30;3.92;;;2.53;;
9924;SDS011;5001;51.674;7.868;2023-08-01T14:19:57;9.07;;;2.95;;
9924;SDS011;5001;51.674;7.868;2023-08-01T14:22:25;2.97;;;2.08;;
9924;SDS011;5001;51.674;7.868;2023-08-01T14:24:52;4.20;;;2.17;;
9924;SDS011;5001;51.674;7.868;2023-08-01T14:27:19;5.72;;;2.92;;
9924;SDS011;5001;51.674;7.868;2023-08-01T14:29:46;3.40;;;2.15;;
9924;SDS011;5001;51.674;7.868;2023-08-01T14:32:15;4.47;;;2.58;;
9924;SDS011;5001;51.674;7.868;2023-08-01T14:34:44;4.70;;;2.20;;
9924;SDS011;5001;51.674;7.868;2023-08-01T14:37:11;3.80;;;1.98;;
9924;SDS011;5001;51.674;7.868;2023-08-01T14:39:38;4.22;;;2.20;;
9924;SDS011;5001;51.674;7.868;2023-08-01T14:42:06;4.40;;;2.25;;
9924;SDS011;5001;51.674;7.868;2023-08-01T14:44:33;3.65;;;2.00;;
9924;SDS011;5001;51.674;7.868;2023-08-01T14:47:00;3.13;;;1.95;;
9924;SDS011;5001;51.674;7.868;2023-08-01T14:49:34;4.45;;;2.28;;
9924;SDS011;5001;51.674;7.868;2023-08-01T14:52:03;1.98;;;1.77;;
9924;SDS011;5001;51.674;7.868;2023-08-01T14:54:30;3.03;;;1.88;;
9924;SDS011;5001;51.674;7.868;2023-08-01T14:57:06;3.03;;;1.92;;
9924;SDS011;5001;51.674;7.868;2023-08-01T14:59:35;2.30;;;1.92;;
9924;SDS011;5001;51.674;7.868;2023-08-01T15:02:02;3.70;;;2.30;;
9924;SDS011;5001;51.674;7.868;2023-08-01T15:04:29;2.22;;;1.77;;
9924;SDS011;5001;51.674;7.868;2023-08-01T15:06:57;4.85;;;1.80;;
9924;SDS011;5001;51.674;7.868;2023-08-01T15:09:24;6.72;;;2.20;;
9924;SDS011;5001;51.674;7.868;2023-08-01T15:11:55;4.25;;;2.40;;
9924;SDS011;5001;51.674;7.868;2023-08-01T15:14:22;4.78;;;1.98;;
9924;SDS011;5001;51.674;7.868;2023-08-01T15:16:49;4.45;;;2.22;;
9924;SDS011;5001;51.674;7.868;2023-08-01T15:19:16;2.75;;;1.80;;
9924;SDS011;5001;51.674;7.868;2023-08-01T15:21:44;3.58;;;1.70;;
9924;SDS011;5001;51.674;7.868;2023-08-01T15:24:12;2.08;;;1.80;;
9924;SDS011;5001;51.674;7.868;2023-08-01T15:26:39;5.70;;;1.95;;
9924;SDS011;5001;51.674;7.868;2023-08-01T15:29:06;1.83;;;1.65;;
9924;SDS011;5001;51.674;7.868;2023-08-01T15:31:33;4.53;;;1.98;;
9924;SDS011;5001;51.674;7.868;2023-08-01T15:34:01;3.05;;;1.65;;
9924;SDS011;5001;51.674;7.868;2023-08-01T15:36:28;3.90;;;1.95;;
9924;SDS011;5001;51.674;7.868;2023-08-01T15:38:56;2.08;;;1.80;;
9924;SDS011;5001;51.674;7.868;2023-08-01T15:41:24;2.83;;;1.90;;
9924;SDS011;5001;51.674;7.868;2023-08-01T15:43:51;4.25;;;1.90;;
9924;SDS011;5001;51.674;7.868;2023-08-01T15:46:19;3.28;;;1.40;;
9924;SDS011;5001;51.674;7.868;2023-08-01T15:48:46;5.65;;;2.00;;
9924;SDS011;5001;51.674;7.868;2023-08-01T15:51:13;7.97;;;1.95;;
9924;SDS011;5001;51.674;7.868;2023-08-01T15:53:40;2.00;;;1.52;;
9924;SDS011;5001;51.674;7.868;2023-08-01T15:56:08;2.65;;;1.77;;
9924;SDS011;5001;51.674;7.868;2023-08-01T15:58:37;3.05;;;1.58;;
9924;SDS011;5001;51.674;7.868;2023-08-01T16:01:04;3.25;;;1.80;;
9924;SDS011;5001;51.674;7.868;2023-08-01T16:03:35;2.95;;;1.98;;
9924;SDS011;5001;51.674;7.868;2023-08-01T16:06:04;2.55;;;1.52;;
9924;SDS011;5001;51.674;7.868;2023-08-01T16:08:31;2.53;;;2.05;;
9924;SDS011;5001;51.674;7.868;2023-08-01T16:10:58;7.07;;;2.55;;
9924;SDS011;5001;51.674;7.868;2023-08-01T16:13:28;4.55;;;1.92;;
9924;SDS011;5001;51.674;7.868;2023-08-01T16:15:55;3.42;;;2.05;;
9924;SDS011;5001;51.674;7.868;2023-08-01T16:18:23;4.45;;;2.72;;
9924;SDS011;5001;51.674;7.868;2023-08-01T16:20:50;5.40;;;2.38;;
9924;SDS011;5001;51.674;7.868;2023-08-01T16:23:17;4.07;;;2.13;;
9924;SDS011;5001;51.674;7.868;2023-08-01T16:25:44;6.40;;;3.17;;
9924;SDS011;5001;51.674;7.868;2023-08-01T16:28:10;5.95;;;2.92;;
9924;SDS011;5001;51.674;7.868;2023-08-01T16:30:37;7.28;;;3.25;;
9924;SDS011;5001;51.674;7.868;2023-08-01T16:33:04;4.43;;;2.40;;
9924;SDS011;5001;51.674;7.868;2023-08-01T16:35:33;2.80;;;2.00;;
9924;SDS011;5001;51.674;7.868;2023-08-01T16:38:00;2.70;;;1.73;;
9924;SDS011;5001;51.674;7.868;2023-08-01T16:40:27;5.07;;;2.10;;
9924;SDS011;5001;51.674;7.868;2023-08-01T16:42:54;3.25;;;2.05;;
9924;SDS011;5001;51.674;7.868;2023-08-01T16:45:23;2.63;;;1.83;;
9924;SDS011;5001;51.674;7.868;2023-08-01T16:47:50;4.60;;;1.70;;
9924;SDS011;5001;51.674;7.868;2023-08-01T16:50:17;1.88;;;1.67;;
9924;SDS011;5001;51.674;7.868;2023-08-01T16:52:46;4.78;;;2.20;;
9924;SDS011;5001;51.674;7.868;2023-08-01T16:55:14;3.95;;;2.63;;
9924;SDS011;5001;51.674;7.868;2023-08-01T16:57:42;8.18;;;3.47;;
9924;SDS011;5001;51.674;7.868;2023-08-01T17:00:10;5.20;;;2.83;;
9924;SDS011;5001;51.674;7.868;2023-08-01T17:02:38;3.63;;;2.50;;
9924;SDS011;5001;51.674;7.868;2023-08-01T17:05:05;3.30;;;2.10;;
9924;SDS011;5001;51.674;7.868;2023-08-01T17:07:33;6.15;;;2.05;;
9924;SDS011;5001;51.674;7.868;2023-08-01T17:10:01;3.22;;;1.83;;
9924;SDS011;5001;51.674;7.868;2023-08-01T17:12:29;2.55;;;1.83;;
9924;SDS011;5001;51.674;7.868;2023-08-01T17:14:57;2.60;;;1.70;;
9924;SDS011;5001;51.674;7.868;2023-08-01T17:17:26;2.20;;;1.95;;
9924;SDS011;5001;51.674;7.868;2023-08-01T17:19:53;2.85;;;1.80;;
9924;SDS011;5001;51.674;7.868;2023-08-01T17:22:21;2.33;;;1.92;;
9924;SDS011;5001;51.674;7.868;2023-08-01T17:24:50;1.98;;;1.48;;
9924;SDS011;5001;51.674;7.868;2023-08-01T17:27:17;3.92;;;2.42;;
9924;SDS011;5001;51.674;7.868;2023-08-01T17:29:45;4.63;;;1.88;;
9924;SDS011;5001;51.674;7.868;2023-08-01T17:32:12;2.92;;;2.05;;
9924;SDS011;5001;51.674;7.868;2023-08-01T17:34:39;2.75;;;1.73;;
9924;SDS011;5001;51.674;7.868;2023-08-01T17:37:06;4.53;;;1.73;;
9924;SDS011;5001;51.674;7.868;2023-08-01T17:39:33;3.38;;;1.80;;
9924;SDS011;5001;51.674;7.868;2023-08-01T17:42:00;2.65;;;1.90;;
9924;SDS011;5001;51.674;7.868;2023-08-01T17:44:27;3.30;;;1.83;;
9924;SDS011;5001;51.674;7.868;2023-08-01T17:47:06;5.30;;;2.08;;
9924;SDS011;5001;51.674;7.868;2023-08-01T17:49:34;4.93;;;2.13;;
9924;SDS011;5001;51.674;7.868;2023-08-01T17:52:01;2.28;;;1.70;;
9924;SDS011;5001;51.674;7.868;2023-08-01T17:54:28;7.78;;;2.03;;
9924;SDS011;5001;51.674;7.868;2023-08-01T17:56:55;1.90;;;1.70;;
9924;SDS011;5001;51.674;7.868;2023-08-01T17:59:23;1.80;;;1.58;;
9924;SDS011;5001;51.674;7.868;2023-08-01T18:01:49;3.97;;;1.77;;
9924;SDS011;5001;51.674;7.868;2023-08-01T18:04:19;4.95;;;1.80;;
9924;SDS011;5001;51.674;7.868;2023-08-01T18:06:47;2.10;;;1.60;;
9924;SDS011;5001;51.674;7.868;2023-08-01T18:09:15;4.53;;;1.75;;
9924;SDS011;5001;51.674;7.868;2023-08-01T18:11:44;2.78;;;1.42;;
9924;SDS011;5001;51.674;7.868;2023-08-01T18:14:12;1.60;;;1.50;;
9924;SDS011;5001;51.674;7.868;2023-08-01T18:16:39;4.43;;;1.92;;
9924;SDS011;5001;51.674;7.868;2023-08-01T18:19:07;1.58;;;1.48;;
9924;SDS011;5001;51.674;7.868;2023-08-01T18:21:34;5.13;;;2.03;;
9924;SDS011;5001;51.674;7.868;2023-08-01T18:24:01;3.15;;;1.67;;
9924;SDS011;5001;51.674;7.868;2023-08-01T18:26:28;2.15;;;1.95;;
9924;SDS011;5001;51.674;7.868;2023-08-01T18:28:55;3.72;;;2.00;;
9924;SDS011;5001;51.674;7.868;2023-08-01T18:31:23;4.03;;;1.83;;
9924;SDS011;5001;51.674;7.868;2023-08-01T18:33:50;4.38;;;1.70;;
9924;SDS011;5001;51.674;7.868;2023-08-01T18:36:18;2.78;;;1.50;;
9924;SDS011;5001;51.674;7.868;2023-08-01T18:38:46;4.65;;;2.30;;
9924;SDS011;5001;51.674;7.868;2023-08-01T18:41:15;8.02;;;2.30;;
9924;SDS011;5001;51.674;7.868;2023-08-01T18:43:43;4.80;;;2.08;;
9924;SDS011;5001;51.674;7.868;2023-08-01T18:46:12;4.05;;;2.35;;
9924;SDS011;5001;51.674;7.868;2023-08-01T18:48:41;5.18;;;3.33;;
9924;SDS011;5001;51.674;7.868;2023-08-01T18:51:10;9.18;;;3.08;;
9924;SDS011;5001;51.674;7.868;2023-08-01T18:53:38;5.57;;;3.05;;
9924;SDS011;5001;51.674;7.868;2023-08-01T18:56:08;3.03;;;2.17;;
9924;SDS011;5001;51.674;7.868;2023-08-01T18:58:39;2.22;;;1.98;;
9924;SDS011;5001;51.674;7.868;2023-08-01T19:01:20;3.85;;;2.40;;
9924;SDS011;5001;51.674;7.868;2023-08-01T19:03:50;6.47;;;2.35;;
9924;SDS011;5001;51.674;7.868;2023-08-01T19:06:20;4.32;;;2.80;;
9924;SDS011;5001;51.674;7.868;2023-08-01T19:08:49;5.93;;;3.05;;
9924;SDS011;5001;51.674;7.868;2023-08-01T19:11:24;6.25;;;2.72;;
9924;SDS011;5001;51.674;7.868;2023-08-01T19:13:56;3.60;;;2.40;;
9924;SDS011;5001;51.674;7.868;2023-08-01T19:16:23;5.20;;;2.55;;
9924;SDS011;5001;51.674;7.868;2023-08-01T19:18:50;3.03;;;2.72;;
9924;SDS011;5001;51.674;7.868;2023-08-01T19:21:17;4.97;;;3.10;;
9924;SDS011;5001;51.674;7.868;2023-08-01T19:23:45;3.17;;;1.85;;
9924;SDS011;5001;51.674;7.868;2023-08-01T19:26:13;2.85;;;1.88;;
9924;SDS011;5001;51.674;7.868;2023-08-01T19:28:40;4.82;;;1.98;;
9924;SDS011;5001;51.674;7.868;2023-08-01T19:31:07;3.47;;;2.33;;
9924;SDS011;5001;51.674;7.868;2023-08-01T19:33:36;3.03;;;2.58;;
9924;SDS011;5001;51.674;7.868;2023-08-01T19:36:03;6.80;;;2.85;;
9924;SDS011;5001;51.674;7.868;2023-08-01T19:38:31;5.32;;;2.53;;
9924;SDS011;5001;51.674;7.868;2023-08-01T19:40:59;4.70;;;2.15;;
9924;SDS011;5001;51.674;7.868;2023-08-01T19:43:27;4.93;;;2.28;;
9924;SDS011;5001;51.674;7.868;2023-08-01T19:45:56;5.47;;;1.95;;
9924;SDS011;5001;51.674;7.868;2023-08-01T19:48:24;7.22;;;2.00;;
9924;SDS011;5001;51.674;7.868;2023-08-01T19:50:52;3.30;;;1.50;;
9924;SDS011;5001;51.674;7.868;2023-08-01T19:53:21;2.85;;;2.17;;
9924;SDS011;5001;51.674;7.868;2023-08-01T19:55:51;4.72;;;1.85;;
9924;SDS011;5001;51.674;7.868;2023-08-01T19:58:19;3.78;;;1.90;;
9924;SDS011;5001;51.674;7.868;2023-08-01T20:00:46;4.00;;;1.75;;
9924;SDS011;5001;51.674;7.868;2023-08-01T20:03:18;3.05;;;1.63;;
9924;SDS011;5001;51.674;7.868;2023-08-01T20:05:48;2.17;;;1.60;;
9924;SDS011;5001;51.674;7.868;2023-08-01T20:08:16;5.05;;;1.70;;
9924;SDS011;5001;51.674;7.868;2023-08-01T20:10:43;3.95;;;1.65;;
9924;SDS011;5001;51.674;7.868;2023-08-01T20:13:10;4.50;;;1.80;;
9924;SDS011;5001;51.674;7.868;2023-08-01T20:15:37;4.03;;;1.60;;
9924;SDS011;5001;51.674;7.868;2023-08-01T20:18:04;2.53;;;1.38;;
9924;SDS011;5001;51.674;7.868;2023-08-01T20:20:35;3.35;;;1.88;;
9924;SDS011;5001;51.674;7.868;2023-08-01T20:23:05;5.75;;;1.80;;
9924;SDS011;5001;51.674;7.868;2023-08-01T20:25:42;2.60;;;2.03;;
9924;SDS011;5001;51.674;7.868;2023-08-01T20:28:14;2.33;;;1.55;;
9924;SDS011;5001;51.674;7.868;2023-08-01T20:30:44;4.55;;;1.70;;
9924;SDS011;5001;51.674;7.868;2023-08-01T20:33:20;6.20;;;1.70;;
9924;SDS011;5001;51.674;7.868;2023-08-01T20:35:56;3.45;;;1.88;;
9924;SDS011;5001;51.674;7.868;2023-08-01T20:38:24;3.08;;;1.60;;
9924;SDS011;5001;51.674;7.868;2023-08-01T20:40:51;4.30;;;2.00;;
9924;SDS011;5001;51.674;7.868;2023-08-01T20:43:23;3.65;;;1.85;;
9924;SDS011;5001;51.674;7.868;2023-08-01T20:45:51;5.03;;;1.70;;
9924;SDS011;5001;51.674;7.868;2023-08-01T20:48:22;4.93;;;1.70;;
9924;SDS011;5001;51.674;7.868;2023-08-01T20:50:49;3.13;;;1.75;;
9924;SDS011;5001;51.674;7.868;2023-08-01T20:53:16;6.05;;;1.60;;
9924;SDS011;5001;51.674;7.868;2023-08-01T20:55:43;3.85;;;1.83;;
9924;SDS011;5001;51.674;7.868;2023-08-01T20:58:10;5.22;;;1.63;;
9924;SDS011;5001;51.674;7.868;2023-08-01T21:00:37;2.80;;;1.63;;
9924;SDS011;5001;51.674;7.868;2023-08-01T21:03:04;6.20;;;2.05;;
9924;SDS011;5001;51.674;7.868;2023-08-01T21:05:34;3.25;;;2.30;;
9924;SDS011;5001;51.674;7.868;2023-08-01T21:08:03;3.13;;;2.05;;
9924;SDS011;5001;51.674;7.868;2023-08-01T21:10:31;3.90;;;1.60;;
9924;SDS011;5001;51.674;7.868;2023-08-01T21:12:58;2.22;;;1.83;;
9924;SDS011;5001;51.674;7.868;2023-08-01T21:15:25;3.25;;;1.85;;
9924;SDS011;5001;51.674;7.868;2023-08-01T21:17:53;6.65;;;1.80;;
9924;SDS011;5001;51.674;7.868;2023-08-01T21:20:23;3.78;;;2.00;;
9924;SDS011;5001;51.674;7.868;2023-08-01T21:22:50;6.57;;;2.00;;
9924;SDS011;5001;51.674;7.868;2023-08-01T21:25:17;3.90;;;1.77;;
9924;SDS011;5001;51.674;7.868;2023-08-01T21:27:44;3.60;;;1.83;;
9924;SDS011;5001;51.674;7.868;2023-08-01T21:30:11;6.15;;;1.80;;
9924;SDS011;5001;51.674;7.868;2023-08-01T21:32:40;3.47;;;1.85;;
9924;SDS011;5001;51.674;7.868;2023-08-01T21:35:07;2.13;;;1.92;;
9924;SDS011;5001;51.674;7.868;2023-08-01T21:37:34;5.38;;;2.45;;
9924;SDS011;5001;51.674;7.868;2023-08-01T21:40:01;2.90;;;1.85;;
9924;SDS011;5001;51.674;7.868;2023-08-01T21:42:28;4.15;;;2.00;;
9924;SDS011;5001;51.674;7.868;2023-08-01T21:44:55;7.88;;;2.72;;
9924;SDS011;5001;51.674;7.868;2023-08-01T21:47:22;2.80;;;1.70;;
9924;SDS011;5001;51.674;7.868;2023-08-01T21:49:49;4.32;;;1.83;;
9924;SDS011;5001;51.674;7.868;2023-08-01T21:52:16;2.55;;;1.50;;
9924;SDS011;5001;51.674;7.868;2023-08-01T21:54:43;5.18;;;1.83;;
9924;SDS011;5001;51.674;7.868;2023-08-01T21:57:10;3.72;;;1.75;;
9924;SDS011;5001;51.674;7.868;2023-08-01T21:59:37;3.85;;;2.05;;
9924;SDS011;5001;51.674;7.868;2023-08-01T22:02:04;6.32;;;1.80;;
9924;SDS011;5001;51.674;7.868;2023-08-01T22:04:31;2.53;;;1.73;;
9924;SDS011;5001;51.674;7.868;2023-08-01T22:06:58;3.88;;;1.80;;
9924;SDS011;5001;51.674;7.868;2023-08-01T22:09:25;4.75;;;1.60;;
9924;SDS011;5001;51.674;7.868;2023-08-01T22:11:52;4.13;;;1.95;;
9924;SDS011;5001;51.674;7.868;2023-08-01T22:14:19;4.03;;;2.03;;
9924;SDS011;5001;51.674;7.868;2023-08-01T22:16:46;3.85;;;1.98;;
9924;SDS011;5001;51.674;7.868;2023-08-01T22:19:13;4.93;;;1.90;;
9924;SDS011;5001;51.674;7.868;2023-08-01T22:21:40;4.35;;;1.88;;
9924;SDS011;5001;51.674;7.868;2023-08-01T22:24:07;2.95;;;1.50;;
9924;SDS011;5001;51.674;7.868;2023-08-01T22:26:34;2.60;;;1.95;;
9924;SDS011;5001;51.674;7.868;2023-08-01T22:29:02;5.30;;;1.90;;
9924;SDS011;5001;51.674;7.868;2023-08-01T22:31:29;4.68;;;1.60;;
9924;SDS011;5001;51.674;7.868;2023-08-01T22:33:59;3.88;;;1.30;;
9924;SDS011;5001;51.674;7.868;2023-08-01T22:36:26;4.45;;;2.05;;
9924;SDS011;5001;51.674;7.868;2023-08-01T22:38:53;6.40;;;1.85;;
9924;SDS011;5001;51.674;7.868;2023-08-01T22:41:20;3.47;;;2.40;;
9924;SDS011;5001;51.674;7.868;2023-08-01T22:43:47;2.45;;;1.70;;
9924;SDS011;5001;51.674;7.868;2023-08-01T22:46:19;6.38;;;1.90;;
9924;SDS011;5001;51.674;7.868;2023-08-01T22:48:46;2.38;;;1.73;;
9924;SDS011;5001;51.674;7.868;2023-08-01T22:51:16;6.22;;;2.13;;
9924;SDS011;5001;51.674;7.868;2023-08-01T22:53:45;2.47;;;1.58;;
9924;SDS011;5001;51.674;7.868;2023-08-01T22:56:14;7.28;;;1.95;;
9924;SDS011;5001;51.674;7.868;2023-08-01T22:58:42;4.07;;;1.75;;
9924;SDS011;5001;51.674;7.868;2023-08-01T23:01:10;3.83;;;1.65;;
9924;SDS011;5001;51.674;7.868;2023-08-01T23:03:39;4.70;;;2.15;;
9924;SDS011;5001;51.674;7.868;2023-08-01T23:06:07;6.00;;;2.22;;
9924;SDS011;5001;51.674;7.868;2023-08-01T23:08:35;4.47;;;1.67;;
9924;SDS011;5001;51.674;7.868;2023-08-01T23:11:02;4.72;;;1.52;;
9924;SDS011;5001;51.674;7.868;2023-08-01T23:13:29;3.15;;;1.67;;
9924;SDS011;5001;51.674;7.868;2023-08-01T23:15:56;2.70;;;1.88;;
9924;SDS011;5001;51.674;7.868;2023-08-01T23:18:23;4.65;;;1.70;;
9924;SDS011;5001;51.674;7.868;2023-08-01T23:20:55;5.53;;;2.17;;
9924;SDS011;5001;51.674;7.868;2023-08-01T23:23:23;4.65;;;1.90;;
9924;SDS011;5001;51.674;7.868;2023-08-01T23:26:04;3.65;;;1.58;;
9924;SDS011;5001;51.674;7.868;2023-08-01T23:28:33;2.22;;;1.88;;
9924;SDS011;5001;51.674;7.868;2023-08-01T23:31:01;3.20;;;1.90;;
9924;SDS011;5001;51.674;7.868;2023-08-01T23:33:28;5.53;;;2.17;;
9924;SDS011;5001;51.674;7.868;2023-08-01T23:35:55;3.05;;;2.00;;
9924;SDS011;5001;51.674;7.868;2023-08-01T23:38:22;5.32;;;1.80;;
9924;SDS011;5001;51.674;7.868;2023-08-01T23:40:50;3.03;;;1.70;;
9924;SDS011;5001;51.674;7.868;2023-08-01T23:43:17;2.63;;;1.60;;
9924;SDS011;5001;51.674;7.868;2023-08-01T23:46:02;3.10;;;1.80;;
9924;SDS011;5001;51.674;7.868;2023-08-01T23:48:29;4.20;;;2.40;;
9924;SDS011;5001;51.674;7.868;2023-08-01T23:50:56;3.42;;;1.88;;
9924;SDS011;5001;51.674;7.868;2023-08-01T23:53:23;5.22;;;1.77;;
9924;SDS011;5001;51.674;7.868;2023-08-01T23:55:57;2.42;;;1.50;;
9924;SDS011;5001;51.674;7.868;2023-08-01T23:58:28;3.17;;;1.67;;
